sensor_id;sensor_type;location;lat;lon;timestamp;pressure;altitude;pressure_sealevel;temperature;humidity
63351;BME280;64988;51.058;17.040;2023-04-03T00:03:40;100957.50;;;10.38;36.96
63351;BME280;64988;51.058;17.040;2023-04-03T00:09:09;100955.13;;;9.92;37.93
63351;BME280;64988;51.058;17.040;2023-04-03T00:14:37;100960.66;;;10.44;36.90
63351;BME280;64988;51.058;17.040;2023-04-03T00:20:05;100959.56;;;9.93;37.84
63351;BME280;64988;51.058;17.040;2023-04-03T00:25:33;100967.00;;;9.90;37.89
63351;BME280;64988;51.058;17.040;2023-04-03T00:31:01;100974.06;;;9.78;38.09
63351;BME280;64988;51.058;17.040;2023-04-03T00:36:29;100969.22;;;9.83;38.41
63351;BME280;64988;51.058;17.040;2023-04-03T00:41:57;100972.25;;;9.79;39.21
63351;BME280;64988;51.058;17.040;2023-04-03T00:47:25;100968.78;;;10.03;38.31
63351;BME280;64988;51.058;17.040;2023-04-03T00:52:54;100974.66;;;9.55;39.32
63351;BME280;64988;51.058;17.040;2023-04-03T00:58:28;100970.69;;;9.75;39.08
63351;BME280;64988;51.058;17.040;2023-04-03T01:04:00;100970.16;;;9.41;39.42
63351;BME280;64988;51.058;17.040;2023-04-03T01:09:32;100980.56;;;9.33;39.94
63351;BME280;64988;51.058;17.040;2023-04-03T01:15:12;100982.00;;;9.11;40.37
63351;BME280;64988;51.058;17.040;2023-04-03T01:26:23;100989.97;;;9.26;41.00
63351;BME280;64988;51.058;17.040;2023-04-03T01:31:57;100995.78;;;9.89;39.22
63351;BME280;64988;51.058;17.040;2023-04-03T01:37:25;100995.03;;;9.87;39.51
63351;BME280;64988;51.058;17.040;2023-04-03T01:42:52;100998.88;;;8.98;40.60
63351;BME280;64988;51.058;17.040;2023-04-03T01:48:19;101006.41;;;9.78;39.58
63351;BME280;64988;51.058;17.040;2023-04-03T01:53:47;101015.72;;;9.87;39.59
63351;BME280;64988;51.058;17.040;2023-04-03T01:59:14;101010.16;;;10.31;38.60
63351;BME280;64988;51.058;17.040;2023-04-03T02:04:44;101017.22;;;10.19;38.56
63351;BME280;64988;51.058;17.040;2023-04-03T02:10:13;101024.38;;;9.92;39.10
63351;BME280;64988;51.058;17.040;2023-04-03T02:15:41;101023.41;;;9.93;38.90
63351;BME280;64988;51.058;17.040;2023-04-03T02:21:09;101018.75;;;10.09;38.99
63351;BME280;64988;51.058;17.040;2023-04-03T02:26:37;101014.78;;;9.03;40.97
63351;BME280;64988;51.058;17.040;2023-04-03T02:32:06;101018.53;;;9.85;40.05
63351;BME280;64988;51.058;17.040;2023-04-03T02:37:34;101017.78;;;9.27;41.01
63351;BME280;64988;51.058;17.040;2023-04-03T02:43:03;101030.25;;;9.00;41.37
63351;BME280;64988;51.058;17.040;2023-04-03T02:48:32;101030.66;;;9.22;41.40
63351;BME280;64988;51.058;17.040;2023-04-03T02:54:00;101039.13;;;8.72;42.08
63351;BME280;64988;51.058;17.040;2023-04-03T02:59:30;101037.56;;;8.98;41.16
63351;BME280;64988;51.058;17.040;2023-04-03T03:04:58;101034.59;;;8.72;42.37
63351;BME280;64988;51.058;17.040;2023-04-03T03:10:26;101037.88;;;9.21;41.55
63351;BME280;64988;51.058;17.040;2023-04-03T03:15:53;101023.81;;;8.42;43.28
63351;BME280;64988;51.058;17.040;2023-04-03T03:21:22;101040.06;;;9.01;41.88
63351;BME280;64988;51.058;17.040;2023-04-03T03:26:49;101044.47;;;8.42;43.20
63351;BME280;64988;51.058;17.040;2023-04-03T03:32:16;101039.06;;;8.87;42.65
63351;BME280;64988;51.058;17.040;2023-04-03T03:37:44;101044.06;;;8.64;43.03
63351;BME280;64988;51.058;17.040;2023-04-03T03:43:11;101058.09;;;8.23;44.26
63351;BME280;64988;51.058;17.040;2023-04-03T03:48:42;101056.75;;;8.15;44.32
63351;BME280;64988;51.058;17.040;2023-04-03T03:54:10;101047.84;;;8.46;43.88
63351;BME280;64988;51.058;17.040;2023-04-03T03:59:38;101060.50;;;8.59;43.33
63351;BME280;64988;51.058;17.040;2023-04-03T04:05:08;101066.91;;;7.78;45.32
63351;BME280;64988;51.058;17.040;2023-04-03T04:10:37;101054.41;;;8.09;44.30
63351;BME280;64988;51.058;17.040;2023-04-03T04:16:07;101069.50;;;7.96;44.60
63351;BME280;64988;51.058;17.040;2023-04-03T04:21:34;101078.75;;;7.42;46.24
63351;BME280;64988;51.058;17.040;2023-04-03T04:27:03;101084.34;;;8.03;44.92
63351;BME280;64988;51.058;17.040;2023-04-03T04:32:32;101089.78;;;7.85;45.77
63351;BME280;64988;51.058;17.040;2023-04-03T04:37:59;101093.66;;;8.28;44.09
63351;BME280;64988;51.058;17.040;2023-04-03T04:43:27;101112.34;;;7.99;44.52
63351;BME280;64988;51.058;17.040;2023-04-03T04:48:55;101109.09;;;8.40;44.24
63351;BME280;64988;51.058;17.040;2023-04-03T04:54:24;101111.75;;;10.59;39.90
63351;BME280;64988;51.058;17.040;2023-04-03T04:59:52;101102.44;;;12.66;35.97
63351;BME280;64988;51.058;17.040;2023-04-03T05:05:20;101104.81;;;13.75;33.58
63351;BME280;64988;51.058;17.040;2023-04-03T05:10:46;101103.97;;;15.89;30.39
63351;BME280;64988;51.058;17.040;2023-04-03T05:16:16;101103.34;;;17.15;28.34
63351;BME280;64988;51.058;17.040;2023-04-03T05:21:44;101122.00;;;17.39;26.41
63351;BME280;64988;51.058;17.040;2023-04-03T05:27:14;101129.16;;;17.49;26.03
63351;BME280;64988;51.058;17.040;2023-04-03T05:32:45;101136.34;;;18.35;25.89
63351;BME280;64988;51.058;17.040;2023-04-03T05:38:18;101140.34;;;18.41;24.92
63351;BME280;64988;51.058;17.040;2023-04-03T05:43:46;101139.53;;;20.17;23.58
63351;BME280;64988;51.058;17.040;2023-04-03T05:49:14;101145.34;;;19.45;23.06
63351;BME280;64988;51.058;17.040;2023-04-03T05:54:42;101141.41;;;21.26;21.51
63351;BME280;64988;51.058;17.040;2023-04-03T06:00:16;101151.19;;;19.67;22.83
63351;BME280;64988;51.058;17.040;2023-04-03T06:05:53;101151.84;;;18.99;23.09
63351;BME280;64988;51.058;17.040;2023-04-03T06:11:20;101146.22;;;21.88;20.67
63351;BME280;64988;51.058;17.040;2023-04-03T06:16:49;101150.50;;;21.75;20.29
63351;BME280;64988;51.058;17.040;2023-04-03T06:22:17;101156.28;;;22.91;18.71
63351;BME280;64988;51.058;17.040;2023-04-03T06:27:45;101156.91;;;23.01;19.04
63351;BME280;64988;51.058;17.040;2023-04-03T06:33:13;101164.38;;;25.02;17.58
63351;BME280;64988;51.058;17.040;2023-04-03T06:38:40;101167.19;;;24.07;16.89
63351;BME280;64988;51.058;17.040;2023-04-03T06:44:07;101172.19;;;22.73;18.03
63351;BME280;64988;51.058;17.040;2023-04-03T06:49:38;101180.56;;;23.19;18.08
63351;BME280;64988;51.058;17.040;2023-04-03T06:55:05;101184.88;;;20.29;20.58
63351;BME280;64988;51.058;17.040;2023-04-03T07:00:33;101190.03;;;19.88;21.59
63351;BME280;64988;51.058;17.040;2023-04-03T07:06:02;101200.22;;;18.71;22.51
63351;BME280;64988;51.058;17.040;2023-04-03T07:11:30;101203.78;;;19.26;22.54
63351;BME280;64988;51.058;17.040;2023-04-03T07:16:57;101206.84;;;19.93;21.75
63351;BME280;64988;51.058;17.040;2023-04-03T07:22:25;101202.53;;;21.52;19.79
63351;BME280;64988;51.058;17.040;2023-04-03T07:27:54;101211.13;;;22.38;18.52
63351;BME280;64988;51.058;17.040;2023-04-03T07:33:24;101222.34;;;23.30;17.22
63351;BME280;64988;51.058;17.040;2023-04-03T07:38:52;101218.78;;;25.02;16.28
63351;BME280;64988;51.058;17.040;2023-04-03T07:44:19;101210.66;;;24.56;16.52
63351;BME280;64988;51.058;17.040;2023-04-03T07:49:46;101215.78;;;24.60;16.29
63351;BME280;64988;51.058;17.040;2023-04-03T07:55:14;101223.03;;;22.22;17.74
63351;BME280;64988;51.058;17.040;2023-04-03T08:00:42;101208.66;;;25.09;15.62
63351;BME280;64988;51.058;17.040;2023-04-03T08:06:10;101208.75;;;25.01;15.74
63351;BME280;64988;51.058;17.040;2023-04-03T08:11:46;101224.38;;;26.01;15.64
63351;BME280;64988;51.058;17.040;2023-04-03T08:17:14;101222.13;;;24.97;15.81
63351;BME280;64988;51.058;17.040;2023-04-03T08:22:41;101224.91;;;23.32;17.47
63351;BME280;64988;51.058;17.040;2023-04-03T08:28:12;101211.22;;;23.77;16.02
63351;BME280;64988;51.058;17.040;2023-04-03T08:33:40;101216.69;;;26.74;14.37
63351;BME280;64988;51.058;17.040;2023-04-03T08:39:08;101217.63;;;27.28;13.92
63351;BME280;64988;51.058;17.040;2023-04-03T08:44:38;101214.88;;;26.87;12.79
63351;BME280;64988;51.058;17.040;2023-04-03T08:50:45;101210.56;;;25.08;13.91
63351;BME280;64988;51.058;17.040;2023-04-03T08:56:13;101223.78;;;23.49;14.69
63351;BME280;64988;51.058;17.040;2023-04-03T09:01:43;101210.78;;;22.41;15.69
63351;BME280;64988;51.058;17.040;2023-04-03T09:07:17;101208.00;;;25.43;13.69
63351;BME280;64988;51.058;17.040;2023-04-03T09:13:03;101216.53;;;20.83;16.89
63351;BME280;64988;51.058;17.040;2023-04-03T09:18:40;101210.69;;;21.12;17.34
63351;BME280;64988;51.058;17.040;2023-04-03T09:24:12;101212.91;;;18.99;18.53
63351;BME280;64988;51.058;17.040;2023-04-03T09:29:43;101211.50;;;18.02;19.36
63351;BME280;64988;51.058;17.040;2023-04-03T09:35:20;101211.47;;;17.35;20.29
63351;BME280;64988;51.058;17.040;2023-04-03T20:06:32;101223.84;;;8.24;36.48
63351;BME280;64988;51.058;17.040;2023-04-03T20:11:59;101238.94;;;8.60;34.19
63351;BME280;64988;51.058;17.040;2023-04-03T20:17:29;101224.69;;;9.50;33.14
63351;BME280;64988;51.058;17.040;2023-04-03T20:22:56;101222.78;;;9.82;32.83
63351;BME280;64988;51.058;17.040;2023-04-03T20:28:25;101229.53;;;10.03;32.52
63351;BME280;64988;51.058;17.040;2023-04-03T20:33:53;101227.00;;;8.81;34.13
63351;BME280;64988;51.058;17.040;2023-04-03T20:39:21;101232.09;;;8.85;33.88
63351;BME280;64988;51.058;17.040;2023-04-03T20:44:51;101232.06;;;9.32;33.62
63351;BME280;64988;51.058;17.040;2023-04-03T20:50:19;101236.69;;;8.68;34.39
63351;BME280;64988;51.058;17.040;2023-04-03T20:55:59;101231.75;;;9.07;34.18
63351;BME280;64988;51.058;17.040;2023-04-03T21:01:27;101237.63;;;8.51;34.81
63351;BME280;64988;51.058;17.040;2023-04-03T21:24:38;101244.94;;;7.82;33.34
63351;BME280;64988;51.058;17.040;2023-04-03T21:30:07;101235.84;;;8.02;32.86
63351;BME280;64988;51.058;17.040;2023-04-03T21:35:34;101242.50;;;8.27;33.22
63351;BME280;64988;51.058;17.040;2023-04-03T21:41:02;101249.84;;;7.57;34.65
63351;BME280;64988;51.058;17.040;2023-04-03T21:46:30;101248.00;;;8.09;33.54
63351;BME280;64988;51.058;17.040;2023-04-03T21:51:58;101238.84;;;7.96;33.64
63351;BME280;64988;51.058;17.040;2023-04-03T21:57:25;101257.44;;;7.66;34.42
63351;BME280;64988;51.058;17.040;2023-04-03T22:02:53;101254.47;;;7.72;35.08
63351;BME280;64988;51.058;17.040;2023-04-03T22:08:34;101240.91;;;8.08;35.05
63351;BME280;64988;51.058;17.040;2023-04-03T22:14:02;101249.09;;;7.72;34.28
63351;BME280;64988;51.058;17.040;2023-04-03T22:19:30;101253.91;;;7.65;35.45
63351;BME280;64988;51.058;17.040;2023-04-03T22:24:58;101265.25;;;7.53;35.94
63351;BME280;64988;51.058;17.040;2023-04-03T22:30:27;101255.00;;;7.44;36.69
63351;BME280;64988;51.058;17.040;2023-04-03T22:35:54;101259.97;;;7.34;36.24
63351;BME280;64988;51.058;17.040;2023-04-03T22:41:21;101259.44;;;7.09;37.22
63351;BME280;64988;51.058;17.040;2023-04-03T22:46:47;101267.81;;;7.03;36.96
63351;BME280;64988;51.058;17.040;2023-04-03T22:52:17;101267.44;;;6.92;36.91
63351;BME280;64988;51.058;17.040;2023-04-03T22:57:47;101266.16;;;7.18;36.56
63351;BME280;64988;51.058;17.040;2023-04-03T23:03:15;101270.22;;;6.91;37.23
63351;BME280;64988;51.058;17.040;2023-04-03T23:08:43;101270.50;;;6.66;37.65
63351;BME280;64988;51.058;17.040;2023-04-03T23:14:11;101265.16;;;7.20;36.59
63351;BME280;64988;51.058;17.040;2023-04-03T23:19:38;101255.72;;;6.95;36.69
63351;BME280;64988;51.058;17.040;2023-04-03T23:25:05;101254.84;;;7.11;36.79
63351;BME280;64988;51.058;17.040;2023-04-03T23:30:33;101262.75;;;7.33;36.79
63351;BME280;64988;51.058;17.040;2023-04-03T23:36:05;101256.03;;;7.42;36.60
63351;BME280;64988;51.058;17.040;2023-04-03T23:41:33;101250.59;;;7.07;37.46
63351;BME280;64988;51.058;17.040;2023-04-03T23:47:00;101246.50;;;7.17;36.62
63351;BME280;64988;51.058;17.040;2023-04-03T23:52:28;101238.63;;;7.31;36.59
63351;BME280;64988;51.058;17.040;2023-04-03T23:57:56;101241.75;;;7.58;36.11
